createdAt,value
2022-08-01T00:00:51.647Z,19.82
2022-08-01T00:01:51.686Z,19.85
2022-08-01T00:02:51.636Z,19.81
2022-08-01T00:03:51.617Z,19.85
2022-08-01T00:04:51.637Z,19.79
2022-08-01T00:05:51.613Z,19.74
2022-08-01T00:06:51.594Z,19.84
2022-08-01T00:07:51.588Z,19.82
2022-08-01T00:08:51.580Z,19.79
2022-08-01T00:09:51.613Z,19.76
2022-08-01T00:10:51.565Z,19.74
2022-08-01T00:11:59.521Z,19.79
2022-08-01T00:12:52.559Z,19.86
2022-08-01T00:13:51.543Z,19.91
2022-08-01T00:14:51.564Z,19.89
2022-08-01T00:15:54.359Z,19.82
2022-08-01T00:16:51.558Z,19.81
2022-08-01T00:17:51.505Z,19.86
2022-08-01T00:18:51.508Z,19.86
2022-08-01T00:19:51.517Z,19.85
2022-08-01T00:20:51.492Z,19.99
2022-08-01T00:21:52.084Z,19.92
2022-08-01T00:22:52.461Z,19.88
2022-08-01T00:23:52.460Z,19.89
2022-08-01T00:24:51.480Z,19.91
2022-08-01T00:25:51.446Z,19.89
2022-08-01T00:26:51.432Z,19.99
2022-08-01T00:27:51.424Z,20.00
2022-08-01T00:28:51.414Z,20.00
2022-08-01T00:30:13.999Z,19.96
2022-08-01T00:30:52.402Z,19.92
2022-08-01T00:31:51.423Z,19.94
2022-08-01T00:32:51.385Z,19.99
2022-08-01T00:33:51.377Z,19.84
2022-08-01T00:34:51.401Z,19.85
2022-08-01T00:35:51.363Z,19.89
2022-08-01T00:36:51.352Z,19.82
2022-08-01T00:37:51.339Z,19.84
2022-08-01T00:38:51.328Z,19.88
2022-08-01T00:39:51.350Z,19.76
2022-08-01T00:40:51.311Z,19.69
2022-08-01T00:41:59.849Z,19.86
2022-08-01T00:42:52.297Z,19.79
2022-08-01T00:43:51.293Z,19.79
2022-08-01T00:44:51.312Z,19.78
2022-08-01T00:45:51.269Z,19.82
2022-08-01T00:46:51.279Z,19.82
2022-08-01T00:47:55.307Z,19.74
2022-08-01T00:48:51.307Z,19.70
2022-08-01T00:49:51.273Z,19.66
2022-08-01T00:50:51.232Z,19.52
2022-08-01T00:51:51.224Z,19.55
2022-08-01T00:52:51.456Z,19.62
2022-08-01T00:53:52.428Z,19.64
2022-08-01T00:54:51.234Z,19.52
2022-08-01T00:55:51.197Z,19.59
2022-08-01T00:56:51.190Z,19.52
2022-08-01T00:58:05.813Z,19.54
2022-08-01T00:58:52.179Z,19.51
2022-08-01T00:59:51.193Z,19.56
2022-08-01T01:00:53.061Z,19.56
2022-08-01T01:01:51.188Z,19.48
2022-08-01T01:02:51.141Z,19.44
2022-08-01T01:03:59.701Z,19.56
2022-08-01T01:04:53.156Z,19.54
2022-08-01T01:05:51.112Z,19.48
2022-08-01T01:06:51.112Z,19.48
2022-08-01T01:07:51.099Z,19.49
2022-08-01T01:08:51.101Z,19.46
2022-08-01T01:09:51.120Z,19.48
2022-08-01T01:10:51.072Z,19.56
2022-08-01T01:11:51.067Z,19.54
2022-08-01T01:12:51.058Z,19.60
2022-08-01T01:13:51.179Z,19.54
2022-08-01T01:14:51.069Z,19.54
2022-08-01T01:15:51.043Z,19.52
2022-08-01T01:16:51.020Z,19.56
2022-08-01T01:17:52.034Z,19.48
2022-08-01T01:18:52.023Z,19.52
2022-08-01T01:19:51.046Z,19.48
2022-08-01T01:20:50.999Z,19.54
2022-08-01T01:21:50.998Z,19.49
2022-08-01T01:22:50.978Z,19.51
2022-08-01T01:23:50.979Z,19.49
2022-08-01T01:24:50.998Z,19.52
2022-08-01T01:25:50.960Z,19.48
2022-08-01T01:26:50.960Z,19.52
2022-08-01T01:27:50.943Z,19.55
2022-08-01T01:28:50.937Z,19.54
2022-08-01T01:29:59.899Z,19.52
2022-08-01T01:30:51.914Z,19.52
2022-08-01T01:31:50.920Z,19.52
2022-08-01T01:32:50.972Z,19.52
2022-08-01T01:33:50.895Z,19.44
2022-08-01T01:34:50.893Z,19.48
2022-08-01T01:35:50.915Z,19.46
2022-08-01T01:36:50.868Z,19.46
2022-08-01T01:37:50.876Z,19.48
2022-08-01T01:38:50.859Z,19.62
2022-08-01T01:39:54.392Z,19.54
2022-08-01T01:40:50.874Z,19.60
2022-08-01T01:41:50.832Z,19.67
2022-08-01T01:42:50.824Z,19.56
2022-08-01T01:43:50.823Z,19.60
2022-08-01T01:44:50.808Z,19.56
2022-08-01T01:45:50.834Z,19.62
2022-08-01T01:46:50.790Z,19.64
2022-08-01T01:47:50.789Z,19.62
2022-08-01T01:48:50.804Z,19.66
2022-08-01T01:49:50.765Z,19.51
2022-08-01T01:50:50.800Z,19.54
2022-08-01T01:52:01.968Z,19.55
2022-08-01T01:52:51.742Z,19.49
2022-08-01T01:53:50.744Z,19.54
2022-08-01T01:54:50.731Z,19.48
2022-08-01T01:55:50.751Z,19.45
2022-08-01T01:56:50.716Z,19.54
2022-08-01T01:57:50.713Z,19.55
2022-08-01T01:58:50.696Z,19.48
2022-08-01T01:59:50.691Z,19.54
2022-08-01T02:00:50.711Z,19.66
2022-08-01T02:01:58.263Z,19.49
2022-08-01T02:02:51.789Z,19.54
2022-08-01T02:03:50.654Z,19.54
2022-08-01T02:04:50.656Z,19.52
2022-08-01T02:05:50.677Z,19.55
2022-08-01T02:06:50.633Z,19.52
2022-08-01T02:07:50.636Z,19.56
2022-08-01T02:08:50.623Z,19.55
2022-08-01T02:09:50.614Z,19.49
2022-08-01T02:10:50.643Z,19.55
2022-08-01T02:12:08.442Z,19.49
2022-08-01T02:12:51.582Z,19.64
2022-08-01T02:13:50.578Z,19.55
2022-08-01T02:14:50.567Z,19.55
2022-08-01T02:16:00.008Z,19.49
2022-08-01T02:16:51.560Z,19.49
2022-08-01T02:17:50.548Z,19.48
2022-08-01T02:18:50.535Z,19.46
2022-08-01T02:19:50.525Z,19.42
2022-08-01T02:20:50.549Z,19.48
2022-08-01T02:21:50.512Z,19.44
2022-08-01T02:22:50.506Z,19.41
2022-08-01T02:23:50.496Z,19.37
2022-08-01T02:24:50.488Z,19.37
2022-08-01T02:26:10.748Z,19.39
2022-08-01T02:26:51.476Z,19.39
2022-08-01T02:27:50.467Z,19.33
2022-08-01T02:28:50.460Z,19.30
2022-08-01T02:29:50.447Z,19.24
2022-08-01T02:30:50.485Z,19.26
2022-08-01T02:31:50.433Z,19.31
2022-08-01T02:32:50.429Z,19.31
2022-08-01T02:33:50.411Z,19.29
2022-08-01T02:34:51.409Z,19.36
2022-08-01T02:36:29.052Z,19.31
2022-08-01T02:36:51.399Z,19.30
2022-08-01T02:37:50.397Z,19.31
2022-08-01T02:38:50.376Z,19.26
2022-08-01T02:39:51.366Z,19.29
2022-08-01T02:40:50.390Z,19.37
2022-08-01T02:41:50.359Z,19.30
2022-08-01T02:42:50.356Z,19.33
2022-08-01T02:43:53.455Z,19.36
2022-08-01T02:44:50.325Z,19.34
2022-08-01T02:45:50.354Z,19.30
2022-08-01T02:46:50.321Z,19.37
2022-08-01T02:47:50.308Z,19.36
2022-08-01T02:48:50.372Z,19.39
2022-08-01T02:49:53.735Z,19.41
2022-08-01T02:50:50.308Z,19.42
2022-08-01T02:51:50.286Z,19.42
2022-08-01T02:52:50.259Z,19.34
2022-08-01T02:53:50.252Z,19.41
2022-08-01T02:54:50.247Z,19.39
2022-08-01T02:55:50.266Z,19.31
2022-08-01T02:56:50.226Z,19.41
2022-08-01T02:57:52.546Z,19.36
2022-08-01T02:58:51.217Z,19.42
2022-08-01T02:59:50.203Z,19.42
2022-08-01T03:00:50.224Z,19.41
2022-08-01T03:01:50.231Z,19.37
2022-08-01T03:02:50.173Z,19.46
2022-08-01T03:03:50.163Z,19.42
2022-08-01T03:04:53.951Z,19.46
2022-08-01T03:05:52.175Z,19.41
2022-08-01T03:06:50.147Z,19.55
2022-08-01T03:07:50.132Z,19.52
2022-08-01T03:08:50.126Z,19.55
2022-08-01T03:09:50.118Z,19.55
2022-08-01T03:10:50.139Z,19.49
2022-08-01T03:11:50.103Z,19.56
2022-08-01T03:12:50.098Z,19.45
2022-08-01T03:13:50.102Z,19.48
2022-08-01T03:14:50.387Z,19.51
2022-08-01T03:15:50.068Z,19.51
2022-08-01T03:16:50.109Z,19.55
2022-08-01T03:17:50.075Z,19.54
2022-08-01T03:18:50.054Z,19.51
2022-08-01T03:19:50.047Z,19.63
2022-08-01T03:20:50.039Z,19.54
2022-08-01T03:21:50.050Z,19.49
2022-08-01T03:22:50.021Z,19.66
2022-08-01T03:23:53.491Z,19.63
2022-08-01T03:24:52.016Z,19.64
2022-08-01T03:25:49.998Z,19.63
2022-08-01T03:26:50.022Z,19.66
2022-08-01T03:27:49.985Z,19.71
2022-08-01T03:28:49.974Z,19.60
2022-08-01T03:29:49.970Z,19.69
2022-08-01T03:30:49.951Z,19.62
2022-08-01T03:31:49.975Z,19.66
2022-08-01T03:32:49.940Z,19.63
2022-08-01T03:33:49.933Z,19.64
2022-08-01T03:34:49.926Z,19.69
2022-08-01T03:35:49.922Z,19.56
2022-08-01T03:36:50.135Z,19.66
2022-08-01T03:38:14.839Z,19.64
2022-08-01T03:38:51.894Z,19.66
2022-08-01T03:39:49.880Z,19.54
2022-08-01T03:40:49.876Z,19.64
2022-08-01T03:41:52.554Z,19.64
2022-08-01T03:42:50.859Z,19.67
2022-08-01T03:43:49.855Z,19.67
2022-08-01T03:44:49.851Z,19.60
2022-08-01T03:45:49.839Z,19.64
2022-08-01T03:46:49.861Z,19.67
2022-08-01T03:47:49.817Z,19.60
2022-08-01T03:48:49.860Z,19.64
2022-08-01T03:49:49.806Z,19.48
2022-08-01T03:50:49.797Z,19.63
2022-08-01T03:51:49.827Z,19.59
2022-08-01T03:52:49.777Z,19.63
2022-08-01T03:53:49.795Z,19.52
2022-08-01T03:54:49.759Z,19.64
2022-08-01T03:55:49.753Z,19.62
2022-08-01T03:56:49.772Z,19.67
2022-08-01T03:57:49.737Z,19.70
2022-08-01T03:58:50.279Z,19.64
2022-08-01T03:59:49.724Z,19.62
2022-08-01T04:00:49.717Z,19.66
2022-08-01T04:01:49.797Z,19.71
2022-08-01T04:02:49.710Z,19.67
2022-08-01T04:03:49.687Z,19.69
2022-08-01T04:04:49.677Z,19.56
2022-08-01T04:05:49.674Z,19.67
2022-08-01T04:06:49.696Z,19.76
2022-08-01T04:07:49.661Z,19.67
2022-08-01T04:08:49.658Z,19.69
2022-08-01T04:09:49.643Z,19.74
2022-08-01T04:10:50.449Z,19.79
2022-08-01T04:11:49.660Z,19.71
2022-08-01T04:12:49.622Z,19.76
2022-08-01T04:13:49.613Z,19.71
2022-08-01T04:14:49.589Z,19.86
2022-08-01T04:15:50.592Z,19.86
2022-08-01T04:16:49.594Z,19.79
2022-08-01T04:17:49.603Z,19.74
2022-08-01T04:18:49.568Z,19.67
2022-08-01T04:19:49.564Z,19.64
2022-08-01T04:20:49.568Z,19.67
2022-08-01T04:21:49.547Z,19.59
2022-08-01T04:22:49.562Z,19.70
2022-08-01T04:23:51.333Z,19.56
2022-08-01T04:24:53.315Z,19.56
2022-08-01T04:25:51.510Z,19.64
2022-08-01T04:26:49.508Z,19.70
2022-08-01T04:27:51.770Z,19.74
2022-08-01T04:28:49.486Z,19.69
2022-08-01T04:29:49.471Z,19.69
2022-08-01T04:30:49.489Z,19.64
2022-08-01T04:31:49.468Z,19.67
2022-08-01T04:32:49.479Z,19.66
2022-08-01T04:33:49.444Z,19.63
2022-08-01T04:34:49.436Z,19.63
2022-08-01T04:36:03.541Z,19.56
2022-08-01T04:36:50.407Z,19.63
2022-08-01T04:37:49.451Z,19.76
2022-08-01T04:38:49.402Z,19.73
2022-08-01T04:39:51.014Z,19.71
2022-08-01T04:40:49.402Z,19.82
2022-08-01T04:41:49.368Z,19.74
2022-08-01T04:42:49.453Z,19.74
2022-08-01T04:43:49.354Z,19.76
2022-08-01T04:44:49.347Z,19.70
2022-08-01T04:45:49.342Z,19.81
2022-08-01T04:46:49.369Z,19.69
2022-08-01T04:47:49.366Z,19.79
2022-08-01T04:48:49.367Z,19.81
2022-08-01T04:49:49.551Z,19.81
2022-08-01T04:50:49.301Z,19.91
2022-08-01T04:51:49.295Z,19.96
2022-08-01T04:52:49.314Z,20.00
2022-08-01T04:53:49.277Z,20.00
2022-08-01T04:54:49.270Z,19.97
2022-08-01T04:55:49.266Z,19.94
2022-08-01T04:56:49.255Z,19.81
2022-08-01T04:57:49.282Z,19.74
2022-08-01T04:58:49.243Z,19.71
2022-08-01T04:59:49.233Z,19.84
2022-08-01T05:00:49.295Z,19.76
2022-08-01T05:01:49.268Z,19.73
2022-08-01T05:02:50.238Z,19.81
2022-08-01T05:03:49.195Z,19.78
2022-08-01T05:04:49.261Z,19.86
2022-08-01T05:05:49.175Z,19.99
2022-08-01T05:06:49.169Z,19.96
2022-08-01T05:07:49.199Z,20.03
2022-08-01T05:08:49.183Z,20.03
2022-08-01T05:09:49.153Z,20.00
2022-08-01T05:10:49.144Z,20.06
2022-08-01T05:11:49.121Z,20.04
2022-08-01T05:12:50.157Z,20.06
2022-08-01T05:13:49.116Z,20.03
2022-08-01T05:14:49.166Z,20.06
2022-08-01T05:15:49.122Z,20.04
2022-08-01T05:16:49.094Z,20.06
2022-08-01T05:17:49.117Z,20.10
2022-08-01T05:18:49.077Z,20.06
2022-08-01T05:19:49.151Z,20.15
2022-08-01T05:20:49.081Z,20.14
2022-08-01T05:21:49.046Z,20.17
2022-08-01T05:22:49.085Z,20.29
2022-08-01T05:23:49.048Z,20.24
2022-08-01T05:24:49.190Z,20.36
2022-08-01T05:25:56.408Z,20.36
2022-08-01T05:26:50.038Z,20.36
2022-08-01T05:27:50.811Z,20.37
2022-08-01T05:28:48.994Z,20.37
2022-08-01T05:29:48.989Z,20.28
2022-08-01T05:30:48.974Z,20.26
2022-08-01T05:31:48.974Z,20.28
2022-08-01T05:32:48.992Z,20.24
2022-08-01T05:33:48.950Z,20.10
2022-08-01T05:34:48.944Z,20.11
2022-08-01T05:35:49.468Z,20.01
2022-08-01T05:36:52.910Z,20.00
2022-08-01T05:37:49.949Z,20.11
2022-08-01T05:38:48.918Z,20.00
2022-08-01T05:39:48.906Z,20.11
2022-08-01T05:40:48.890Z,20.14
2022-08-01T05:41:48.886Z,20.14
2022-08-01T05:42:48.900Z,20.29
2022-08-01T05:43:48.887Z,20.39
2022-08-01T05:44:48.860Z,20.24
2022-08-01T05:45:48.854Z,20.24
2022-08-01T05:46:48.844Z,20.11
2022-08-01T05:47:48.871Z,20.10
2022-08-01T05:48:48.889Z,20.09
2022-08-01T05:49:48.818Z,20.01
2022-08-01T05:50:48.826Z,20.15
2022-08-01T05:51:48.830Z,20.18
2022-08-01T05:52:48.834Z,20.28
2022-08-01T05:53:48.796Z,20.26
2022-08-01T05:54:48.805Z,20.22
2022-08-01T05:55:48.784Z,20.26
2022-08-01T05:56:48.759Z,20.29
2022-08-01T05:57:48.793Z,20.24
2022-08-01T05:58:48.741Z,20.25
2022-08-01T05:59:48.776Z,20.28
2022-08-01T06:00:48.724Z,20.28
2022-08-01T06:01:48.748Z,20.34
2022-08-01T06:02:48.713Z,20.37
2022-08-01T06:03:48.737Z,20.43
2022-08-01T06:04:48.685Z,20.57
2022-08-01T06:05:48.684Z,20.53
2022-08-01T06:06:48.685Z,20.60
2022-08-01T06:07:48.697Z,20.74
2022-08-01T06:08:48.697Z,20.90
2022-08-01T06:09:48.668Z,20.90
2022-08-01T06:10:48.639Z,20.92
2022-08-01T06:11:48.641Z,21.03
2022-08-01T06:12:48.637Z,21.18
2022-08-01T06:13:49.095Z,21.26
2022-08-01T06:14:48.612Z,21.42
2022-08-01T06:15:48.619Z,21.37
2022-08-01T06:16:48.593Z,21.36
2022-08-01T06:17:48.587Z,21.40
2022-08-01T06:18:48.607Z,21.55
2022-08-01T06:19:48.567Z,21.51
2022-08-01T06:20:48.560Z,21.58
2022-08-01T06:21:48.549Z,21.57
2022-08-01T06:22:51.724Z,21.66
2022-08-01T06:23:48.567Z,21.50
2022-08-01T06:24:48.526Z,21.59
2022-08-01T06:25:48.522Z,21.54
2022-08-01T06:26:48.519Z,21.59
2022-08-01T06:27:48.522Z,21.70
2022-08-01T06:28:48.523Z,21.98
2022-08-01T06:29:53.478Z,22.26
2022-08-01T06:30:49.485Z,22.35
2022-08-01T06:31:48.496Z,22.40
2022-08-01T06:32:48.471Z,22.25
2022-08-01T06:33:48.485Z,22.40
2022-08-01T06:34:48.443Z,22.50
2022-08-01T06:35:48.434Z,22.47
2022-08-01T06:36:48.454Z,22.53
2022-08-01T06:37:48.419Z,22.48
2022-08-01T06:38:48.448Z,22.33
2022-08-01T06:39:48.398Z,22.29
2022-08-01T06:40:48.399Z,22.35
2022-08-01T06:41:48.388Z,22.41
2022-08-01T06:42:48.387Z,22.36
2022-08-01T06:44:20.311Z,22.26
2022-08-01T06:44:48.375Z,22.08
2022-08-01T06:45:48.363Z,22.08
2022-08-01T06:46:48.349Z,22.17
2022-08-01T06:47:50.558Z,22.23
2022-08-01T06:48:48.435Z,22.28
2022-08-01T06:49:48.327Z,22.25
2022-08-01T06:50:48.327Z,22.38
2022-08-01T06:51:48.340Z,22.38
2022-08-01T06:52:48.304Z,22.32
2022-08-01T06:53:48.337Z,22.08
2022-08-01T06:54:48.302Z,21.98
2022-08-01T06:55:48.280Z,22.10
2022-08-01T06:56:48.267Z,21.90
2022-08-01T06:57:48.265Z,21.67
2022-08-01T06:58:48.304Z,21.57
2022-08-01T06:59:51.956Z,21.50
2022-08-01T07:00:49.336Z,21.50
2022-08-01T07:01:48.234Z,21.45
2022-08-01T07:02:48.225Z,21.42
2022-08-01T07:03:52.689Z,21.47
2022-08-01T07:04:49.249Z,21.61
2022-08-01T07:05:48.204Z,21.57
2022-08-01T07:06:48.192Z,21.61
2022-08-01T07:07:48.194Z,21.74
2022-08-01T07:08:48.176Z,21.77
2022-08-01T07:09:48.204Z,21.92
2022-08-01T07:10:48.162Z,21.70
2022-08-01T07:11:48.150Z,21.52
2022-08-01T07:12:48.151Z,21.50
2022-08-01T07:13:48.134Z,21.32
2022-08-01T07:14:48.184Z,21.22
2022-08-01T07:15:48.130Z,21.18
2022-08-01T07:16:48.113Z,21.21
2022-08-01T07:17:48.110Z,21.22
2022-08-01T07:18:48.094Z,21.37
2022-08-01T07:19:48.126Z,21.43
2022-08-01T07:20:52.771Z,21.39
2022-08-01T07:21:49.402Z,21.42
2022-08-01T07:22:48.211Z,21.35
2022-08-01T07:23:48.075Z,21.39
2022-08-01T07:24:48.080Z,21.36
2022-08-01T07:25:50.826Z,21.50
2022-08-01T07:26:54.427Z,21.67
2022-08-01T07:27:49.032Z,21.65
2022-08-01T07:28:48.010Z,21.70
2022-08-01T07:29:48.036Z,21.79
2022-08-01T07:30:47.995Z,21.89
2022-08-01T07:31:48.014Z,21.90
2022-08-01T07:32:47.984Z,22.01
2022-08-01T07:33:49.259Z,22.08
2022-08-01T07:34:48.013Z,22.22
2022-08-01T07:35:47.956Z,22.11
2022-08-01T07:36:47.970Z,22.08
2022-08-01T07:37:49.226Z,22.13
2022-08-01T07:38:47.942Z,22.28
2022-08-01T07:39:47.964Z,22.28
2022-08-01T07:40:47.935Z,22.22
2022-08-01T07:42:05.973Z,22.20
2022-08-01T07:42:48.895Z,22.48
2022-08-01T07:43:57.149Z,22.63
2022-08-01T07:44:49.924Z,22.45
2022-08-01T07:45:47.897Z,22.56
2022-08-01T07:46:47.900Z,22.68
2022-08-01T07:47:47.870Z,23.09
2022-08-01T07:48:47.869Z,23.34
2022-08-01T07:49:48.001Z,23.44
2022-08-01T07:50:47.828Z,23.62
2022-08-01T07:52:03.694Z,23.84
2022-08-01T07:52:48.815Z,24.03
2022-08-01T07:53:47.807Z,24.57
2022-08-01T07:54:52.133Z,24.50
2022-08-01T07:55:48.805Z,25.62
2022-08-01T07:56:47.794Z,26.52
2022-08-01T07:57:47.790Z,26.92
2022-08-01T07:58:47.787Z,26.90
2022-08-01T07:59:47.804Z,26.52
2022-08-01T08:00:47.755Z,26.10
2022-08-01T08:01:47.864Z,26.63
2022-08-01T08:02:47.745Z,26.85
2022-08-01T08:03:47.757Z,26.56
2022-08-01T08:04:49.281Z,26.56
2022-08-01T08:05:58.698Z,26.70
2022-08-01T08:06:48.732Z,26.52
2022-08-01T08:07:47.710Z,25.99
2022-08-01T08:08:47.704Z,26.02
2022-08-01T08:09:51.236Z,26.59
2022-08-01T08:10:47.680Z,26.75
2022-08-01T08:11:48.455Z,26.71
2022-08-01T08:12:48.667Z,26.48
2022-08-01T08:13:47.686Z,26.19
2022-08-01T08:14:47.676Z,26.28
2022-08-01T08:15:48.563Z,27.24
2022-08-01T08:16:47.646Z,27.89
2022-08-01T08:17:52.610Z,28.02
2022-08-01T08:18:48.612Z,28.09
2022-08-01T08:19:47.651Z,27.93
2022-08-01T08:20:47.594Z,28.32
2022-08-01T08:21:47.594Z,28.78
2022-08-01T08:22:47.585Z,29.14
2022-08-01T08:23:47.603Z,29.19
2022-08-01T08:24:47.599Z,29.07
2022-08-01T08:25:47.576Z,28.30
2022-08-01T08:26:47.571Z,28.35
2022-08-01T08:27:47.549Z,29.20
2022-08-01T08:28:47.542Z,29.70
2022-08-01T08:29:47.562Z,29.57
2022-08-01T08:30:47.525Z,29.33
2022-08-01T08:31:51.947Z,28.98
2022-08-01T08:32:48.515Z,28.35
2022-08-01T08:33:47.539Z,27.87
2022-08-01T08:34:47.533Z,27.34
2022-08-01T08:35:54.224Z,26.30
2022-08-01T08:36:48.487Z,25.66
2022-08-01T08:37:49.186Z,25.60
2022-08-01T08:38:47.463Z,25.74
2022-08-01T08:39:47.494Z,25.84
2022-08-01T08:40:47.440Z,25.85
2022-08-01T08:41:49.438Z,25.82
2022-08-01T08:42:47.459Z,26.57
2022-08-01T08:43:47.413Z,27.08
2022-08-01T08:44:47.447Z,27.02
2022-08-01T08:45:59.247Z,26.78
2022-08-01T08:46:48.408Z,26.30
2022-08-01T08:47:47.394Z,25.69
2022-08-01T08:48:47.526Z,25.53
2022-08-01T08:49:49.424Z,25.48
2022-08-01T08:50:47.408Z,25.45
2022-08-01T08:51:47.363Z,25.44
2022-08-01T08:52:47.356Z,25.45
2022-08-01T08:53:47.344Z,25.55
2022-08-01T08:54:47.342Z,25.62
2022-08-01T08:55:56.232Z,25.70
2022-08-01T08:56:48.313Z,25.70
2022-08-01T08:57:47.335Z,25.77
2022-08-01T08:58:47.306Z,26.02
2022-08-01T08:59:47.311Z,25.95
2022-08-01T09:00:48.324Z,26.62
2022-08-01T09:01:47.276Z,27.23
2022-08-01T09:02:47.327Z,27.51
2022-08-01T09:03:47.272Z,27.23
2022-08-01T09:04:47.267Z,26.70
2022-08-01T09:05:47.279Z,26.15
2022-08-01T09:06:47.241Z,25.88
2022-08-01T09:07:47.242Z,26.00
2022-08-01T09:08:47.231Z,25.90
2022-08-01T09:09:47.246Z,25.82
2022-08-01T09:10:47.244Z,25.62
2022-08-01T09:11:57.458Z,25.67
2022-08-01T09:12:48.199Z,25.85
2022-08-01T09:13:47.273Z,26.34
2022-08-01T09:14:47.239Z,26.40
2022-08-01T09:15:47.211Z,26.45
2022-08-01T09:16:49.020Z,27.46
2022-08-01T09:17:48.158Z,28.51
2022-08-01T09:18:53.687Z,28.60
2022-08-01T09:19:48.142Z,28.64
2022-08-01T09:20:47.157Z,28.34
2022-08-01T09:21:47.144Z,27.48
2022-08-01T09:22:47.959Z,26.90
2022-08-01T09:23:54.285Z,26.72
2022-08-01T09:24:48.139Z,26.80
2022-08-01T09:25:47.950Z,26.86
2022-08-01T09:26:47.095Z,27.05
2022-08-01T09:27:47.078Z,26.92
2022-08-01T09:28:47.976Z,26.74
2022-08-01T09:29:49.836Z,26.65
2022-08-01T09:30:48.072Z,26.77
2022-08-01T09:31:47.618Z,26.89
2022-08-01T09:32:47.037Z,27.11
2022-08-01T09:33:47.034Z,26.77
2022-08-01T09:34:47.045Z,26.60
2022-08-01T09:35:48.003Z,26.70
2022-08-01T09:36:47.029Z,26.68
2022-08-01T09:37:47.368Z,27.62
2022-08-01T09:38:51.035Z,29.04
2022-08-01T09:39:47.980Z,29.75
2022-08-01T09:40:46.998Z,30.06
2022-08-01T09:41:46.965Z,29.99
2022-08-01T09:42:46.952Z,29.57
2022-08-01T09:43:46.949Z,28.56
2022-08-01T09:44:54.643Z,27.51
2022-08-01T09:45:50.704Z,27.41
2022-08-01T09:46:46.945Z,27.36
2022-08-01T09:47:46.941Z,27.29
2022-08-01T09:48:49.330Z,27.23
2022-08-01T09:49:52.109Z,26.95
2022-08-01T09:50:47.921Z,26.37
2022-08-01T09:51:59.529Z,26.16
2022-08-01T09:52:47.881Z,26.12
2022-08-01T09:53:51.442Z,25.90
2022-08-01T09:54:47.872Z,25.88
2022-08-01T09:55:46.889Z,25.85
2022-08-01T09:56:46.850Z,25.82
2022-08-01T09:57:46.861Z,25.97
2022-08-01T09:58:46.835Z,26.19
2022-08-01T09:59:58.247Z,26.20
2022-08-01T10:00:48.853Z,26.33
2022-08-01T10:01:46.819Z,26.45
2022-08-01T10:02:46.808Z,26.43
2022-08-01T10:03:46.867Z,26.28
2022-08-01T10:04:46.794Z,26.31
2022-08-01T10:05:49.940Z,26.37
2022-08-01T10:06:46.785Z,27.30
2022-08-01T10:07:46.779Z,28.11
2022-08-01T10:08:46.755Z,28.75
2022-08-01T10:09:46.761Z,29.25
2022-08-01T10:10:46.740Z,30.02
2022-08-01T10:11:46.754Z,29.97
2022-08-01T10:12:47.711Z,29.46
2022-08-01T10:13:46.715Z,29.97
2022-08-01T10:14:46.888Z,30.50
2022-08-01T10:15:46.697Z,31.15
2022-08-01T10:16:46.751Z,31.52
2022-08-01T10:17:50.274Z,31.24
2022-08-01T10:18:46.680Z,31.44
2022-08-01T10:19:46.693Z,30.40
2022-08-01T10:20:46.670Z,29.31
2022-08-01T10:21:57.744Z,29.28
2022-08-01T10:22:47.648Z,29.42
2022-08-01T10:23:46.637Z,29.92
2022-08-01T10:24:46.636Z,30.56
2022-08-01T10:25:47.326Z,30.84
2022-08-01T10:26:46.662Z,31.73
2022-08-01T10:27:46.612Z,31.98
2022-08-01T10:28:46.619Z,32.12
2022-08-01T10:30:05.565Z,31.63
2022-08-01T10:30:48.708Z,30.70
2022-08-01T10:31:50.574Z,30.10
2022-08-01T10:32:50.535Z,30.37
2022-08-01T10:33:51.637Z,31.34
2022-08-01T10:34:47.585Z,31.56
2022-08-01T10:35:48.175Z,32.15
2022-08-01T10:36:47.584Z,32.65
2022-08-01T10:37:52.205Z,32.60
2022-08-01T10:38:47.543Z,32.75
2022-08-01T10:39:47.004Z,32.93
2022-08-01T10:40:47.537Z,32.47
2022-08-01T10:41:46.550Z,32.31
2022-08-01T10:42:46.533Z,33.02
2022-08-01T10:43:47.098Z,33.16
2022-08-01T10:44:46.494Z,33.16
2022-08-01T10:45:46.498Z,33.58
2022-08-01T10:46:46.535Z,33.34
2022-08-01T10:47:50.731Z,32.09
2022-08-01T10:48:46.469Z,32.00
2022-08-01T10:49:46.471Z,32.37
2022-08-01T10:50:48.433Z,32.67
2022-08-01T10:51:52.358Z,33.23
2022-08-01T10:52:47.438Z,32.33
2022-08-01T10:53:46.437Z,32.65
2022-08-01T10:54:52.499Z,33.08
2022-08-01T10:55:47.424Z,33.61
2022-08-01T10:56:46.465Z,33.66
2022-08-01T10:57:52.673Z,33.41
2022-08-01T10:58:47.403Z,33.71
2022-08-01T10:59:50.726Z,33.77
2022-08-01T11:00:47.388Z,33.68
2022-08-01T11:01:46.427Z,33.43
2022-08-01T11:02:46.374Z,33.55
2022-08-01T11:03:57.057Z,33.70
2022-08-01T11:04:48.359Z,34.17
2022-08-01T11:05:46.353Z,34.55
2022-08-01T11:06:46.374Z,34.56
2022-08-01T11:07:46.361Z,34.79
2022-08-01T11:08:46.335Z,34.71
2022-08-01T11:09:51.354Z,34.54
2022-08-01T11:10:48.322Z,33.77
2022-08-01T11:11:46.350Z,32.65
2022-08-01T11:12:46.314Z,31.90
2022-08-01T11:13:46.293Z,30.37
2022-08-01T11:14:55.743Z,30.44
2022-08-01T11:15:50.520Z,31.37
2022-08-01T11:16:46.313Z,32.05
2022-08-01T11:17:46.296Z,32.75
2022-08-01T11:18:46.280Z,33.54
2022-08-01T11:19:46.270Z,33.63
2022-08-01T11:20:46.255Z,34.11
2022-08-01T11:21:58.127Z,34.21
2022-08-01T11:22:47.246Z,34.48
2022-08-01T11:23:46.239Z,34.55
2022-08-01T11:24:46.247Z,34.11
2022-08-01T11:26:05.441Z,32.89
2022-08-01T11:26:47.241Z,32.11
2022-08-01T11:27:46.206Z,31.15
2022-08-01T11:29:11.009Z,30.69
2022-08-01T11:29:48.195Z,30.25
2022-08-01T11:30:46.187Z,29.88
2022-08-01T11:31:46.223Z,29.58
2022-08-01T11:33:06.644Z,29.33
2022-08-01T11:33:48.176Z,29.29
2022-08-01T11:34:46.183Z,30.36
2022-08-01T11:35:46.149Z,30.75
2022-08-01T11:37:01.415Z,30.88
2022-08-01T11:37:48.171Z,30.59
2022-08-01T11:38:46.131Z,29.99
2022-08-01T11:39:46.131Z,30.06
2022-08-01T11:40:46.118Z,30.34
2022-08-01T11:41:46.114Z,30.27
2022-08-01T11:42:46.126Z,30.52
2022-08-01T11:43:46.091Z,30.21
2022-08-01T11:44:46.108Z,29.97
2022-08-01T11:45:46.077Z,30.51
2022-08-01T11:46:46.084Z,31.41
2022-08-01T11:47:46.115Z,31.48
2022-08-01T11:48:46.057Z,32.27
2022-08-01T11:49:49.372Z,32.62
2022-08-01T11:50:46.043Z,32.77
2022-08-01T11:51:46.033Z,33.28
2022-08-01T11:52:46.070Z,33.68
2022-08-01T11:53:46.030Z,34.07
2022-08-01T11:54:46.039Z,34.27
2022-08-01T11:55:51.155Z,34.74
2022-08-01T11:56:48.065Z,34.29
2022-08-01T11:57:46.044Z,34.18
2022-08-01T11:58:46.001Z,33.11
2022-08-01T11:59:45.992Z,33.56
2022-08-01T12:00:47.127Z,33.71
2022-08-01T12:01:45.969Z,32.49
2022-08-01T12:02:46.246Z,31.98
2022-08-01T12:03:46.060Z,32.01
2022-08-01T12:04:45.968Z,32.11
2022-08-01T12:05:45.940Z,31.80
2022-08-01T12:06:45.939Z,31.18
2022-08-01T12:07:46.982Z,30.96
2022-08-01T12:08:45.930Z,30.47
2022-08-01T12:09:45.951Z,30.82
2022-08-01T12:10:47.257Z,30.60
2022-08-01T12:11:45.905Z,30.87
2022-08-01T12:12:45.925Z,30.74
2022-08-01T12:13:45.899Z,30.91
2022-08-01T12:14:45.887Z,31.37
2022-08-01T12:15:45.883Z,31.93
2022-08-01T12:16:45.878Z,32.12
2022-08-01T12:17:57.563Z,32.23
2022-08-01T12:18:46.862Z,31.94
2022-08-01T12:19:45.872Z,32.28
2022-08-01T12:20:56.172Z,32.61
2022-08-01T12:21:47.840Z,33.27
2022-08-01T12:22:45.858Z,33.62
2022-08-01T12:23:45.824Z,33.43
2022-08-01T12:24:45.814Z,33.17
2022-08-01T12:25:45.803Z,33.24
2022-08-01T12:26:45.795Z,33.66
2022-08-01T12:27:45.837Z,33.56
2022-08-01T12:28:45.791Z,33.70
2022-08-01T12:29:45.804Z,33.78
2022-08-01T12:30:45.780Z,33.89
2022-08-01T12:31:45.766Z,33.47
2022-08-01T12:32:45.788Z,33.68
2022-08-01T12:33:45.750Z,33.62
2022-08-01T12:34:45.804Z,33.34
2022-08-01T12:35:45.739Z,32.37
2022-08-01T12:36:45.728Z,32.62
2022-08-01T12:37:45.756Z,32.99
2022-08-01T12:38:45.714Z,32.80
2022-08-01T12:39:45.732Z,33.20
2022-08-01T12:40:46.009Z,33.39
2022-08-01T12:41:45.695Z,33.54
2022-08-01T12:42:45.714Z,33.28
2022-08-01T12:43:45.679Z,33.47
2022-08-01T12:45:17.575Z,33.31
2022-08-01T12:45:56.737Z,33.37
2022-08-01T12:46:46.647Z,33.23
2022-08-01T12:47:45.677Z,33.08
2022-08-01T12:48:45.673Z,33.50
2022-08-01T12:49:45.638Z,33.96
2022-08-01T12:50:45.633Z,34.26
2022-08-01T12:51:45.636Z,33.78
2022-08-01T12:52:46.651Z,33.80